Time;durP1;ratioP1;P1;durP2;ratioP2;P2;SDS_P1;SDS_P2;PMS_P1;PMS_P2;Temp;Humidity;BMP_temperature;BMP_pressure;BME280_temperature;BME280_humidity;BME280_pressure;Samples;Min_cycle;Max_cycle;Signal;HPM_P1;HPM_P2
2022/03/05 00:01:13;;;;;;;19.45;10.85;;;;;;;0.58;69.88;62063.44;5041016;28;20202;-74
2022/03/05 00:03:40;;;;;;;18.55;10.48;;;;;;;0.69;69.98;62069.69;5042938;28;20273;-73
2022/03/05 00:06:06;;;;;;;12.32;9.25;;;;;;;0.61;70.57;62064.00;5043885;28;20404;-74
2022/03/05 00:08:33;;;;;;;15.43;9.60;;;;;;;0.54;71.47;62054.31;5040858;28;20229;-74
2022/03/05 00:11:00;;;;;;;19.65;10.60;;;;;;;0.50;71.31;62052.72;5044138;28;20259;-73
2022/03/05 00:13:29;;;;;;;18.48;10.75;;;;;;;0.56;71.35;62061.38;5044048;28;20272;-73
2022/03/05 00:15:57;;;;;;;13.00;10.55;;;;;;;0.51;71.63;62048.75;5043921;28;20225;-74
2022/03/05 00:18:24;;;;;;;15.63;9.93;;;;;;;0.44;71.65;62049.06;5041128;28;20218;-74
2022/03/05 00:20:51;;;;;;;16.60;10.13;;;;;;;0.42;72.14;62041.50;5043896;28;20232;-74
2022/03/05 00:23:18;;;;;;;16.75;9.40;;;;;;;0.41;72.60;62041.00;5043573;28;20534;-74
2022/03/05 00:25:45;;;;;;;14.13;9.27;;;;;;;0.46;72.24;62048.09;5042800;28;20194;-73
2022/03/05 00:28:12;;;;;;;16.08;9.27;;;;;;;0.38;72.85;62042.91;5040878;28;20276;-74
2022/03/05 00:30:41;;;;;;;15.05;9.43;;;;;;;0.38;73.32;62039.91;5043067;28;20218;-74
2022/03/05 00:33:08;;;;;;;17.05;10.57;;;;;;;0.35;73.31;62036.81;5043333;28;20217;-74
2022/03/05 00:35:35;;;;;;;16.33;10.70;;;;;;;0.33;73.65;62032.28;5038477;28;20258;-74
2022/03/05 00:38:02;;;;;;;18.55;10.52;;;;;;;0.31;73.28;62035.75;5043497;28;20218;-74
2022/03/05 00:40:29;;;;;;;19.33;12.50;;;;;;;0.24;73.47;62028.06;5042953;28;20198;-75
2022/03/05 00:42:56;;;;;;;17.77;10.85;;;;;;;0.21;73.67;62020.00;5044013;28;20271;-74
2022/03/05 00:45:23;;;;;;;24.90;13.15;;;;;;;0.35;73.06;62034.84;5043696;28;20220;-75
2022/03/05 00:47:51;;;;;;;19.58;11.80;;;;;;;0.35;73.02;62034.84;5047138;28;20233;-73
2022/03/05 00:50:18;;;;;;;21.92;11.15;;;;;;;0.35;72.72;62034.31;5046971;28;20240;-74
2022/03/05 00:52:45;;;;;;;22.05;11.48;;;;;;;0.31;73.01;62033.25;5046976;28;20241;-74
2022/03/05 00:55:12;;;;;;;19.48;10.90;;;;;;;0.38;71.94;62040.41;5045095;28;20264;-74
2022/03/05 00:57:39;;;;;;;17.77;11.23;;;;;;;0.43;70.14;62040.03;5046855;28;20483;-74
2022/03/05 01:00:08;;;;;;;18.20;11.18;;;;;;;0.52;71.11;62052.25;5047006;28;20563;-74
2022/03/05 01:02:35;;;;;;;18.17;11.50;;;;;;;0.61;69.71;62063.47;5044683;28;20230;-74
2022/03/05 01:05:04;;;;;;;19.73;10.75;;;;;;;0.60;70.03;62062.47;5046757;28;20205;-74
2022/03/05 01:07:31;;;;;;;17.63;10.38;;;;;;;0.61;70.75;62063.47;5047299;28;20214;-74
2022/03/05 01:09:57;;;;;;;17.70;11.50;;;;;;;0.72;70.02;62075.28;5047207;28;20198;-75
2022/03/05 01:12:24;;;;;;;18.75;11.65;;;;;;;0.72;69.98;62072.28;5039047;28;20234;-74
2022/03/05 01:14:51;;;;;;;14.75;10.23;;;;;;;0.74;70.59;62074.31;5041092;28;20237;-74
2022/03/05 01:17:19;;;;;;;18.80;11.20;;;;;;;0.71;70.12;62071.75;5046674;28;20565;-74
2022/03/05 01:19:46;;;;;;;18.05;10.68;;;;;;;0.74;70.23;62077.31;5046682;28;20206;-74
2022/03/05 01:22:15;;;;;;;18.35;10.85;;;;;;;0.77;70.13;62079.91;5044105;28;20416;-75
2022/03/05 01:24:41;;;;;;;14.85;10.90;;;;;;;0.75;71.20;62078.38;5046826;28;20507;-75
2022/03/05 01:27:08;;;;;;;21.45;11.23;;;;;;;0.78;71.13;62081.44;5046995;28;20239;-75
2022/03/05 01:29:35;;;;;;;19.08;11.13;;;;;;;0.78;71.79;62078.94;5045398;28;20248;-75
2022/03/05 01:32:03;;;;;;;18.67;10.88;;;;;;;0.78;70.92;62076.44;5045918;28;20241;-75
2022/03/05 01:34:29;;;;;;;22.60;10.57;;;;;;;0.89;70.08;62089.69;5047400;28;20210;-74
2022/03/05 01:36:56;;;;;;;15.48;10.13;;;;;;;0.91;69.79;62096.75;5047325;28;20445;-75
2022/03/05 01:39:24;;;;;;;18.83;10.18;;;;;;;0.90;70.19;62088.22;5044357;28;20213;-74
2022/03/05 01:41:55;;;;;;;17.35;11.18;;;;;;;0.98;69.51;62101.44;5046215;28;20227;-74
2022/03/05 01:44:22;;;;;;;20.85;11.68;;;;;;;0.99;69.67;62102.47;5046773;28;20206;-74
2022/03/05 01:46:49;;;;;;;21.27;11.38;;;;;;;1.08;69.24;62106.69;5046509;28;20263;-74
2022/03/05 01:49:16;;;;;;;21.23;11.02;;;;;;;1.09;69.27;62115.75;5046334;28;20205;-75
2022/03/05 01:51:44;;;;;;;20.70;11.68;;;;;;;1.17;69.08;62121.44;5048997;28;20230;-74
2022/03/05 01:54:11;;;;;;;18.60;11.18;;;;;;;1.16;69.79;62120.41;5032094;28;20245;-75
2022/03/05 01:56:41;;;;;;;15.85;9.93;;;;;;;1.21;70.28;62119.50;5030746;28;20256;-74
2022/03/05 01:59:09;;;;;;;13.77;9.90;;;;;;;1.22;70.91;62128.56;5045581;28;20197;-74
2022/03/05 02:01:36;;;;;;;16.33;11.13;;;;;;;1.28;71.24;62132.22;5045987;28;20222;-74
2022/03/05 02:04:03;;;;;;;18.65;11.77;;;;;;;1.30;71.25;62131.75;5046434;28;20380;-75
2022/03/05 02:06:30;;;;;;;25.13;12.43;;;;;;;1.34;71.20;62138.38;5043805;28;20214;-74
2022/03/05 02:08:58;;;;;;;19.27;11.40;;;;;;;1.39;69.58;62141.00;5045193;28;20248;-74
2022/03/05 02:11:26;;;;;;;17.35;10.85;;;;;;;1.38;69.05;62137.44;5046547;28;20209;-74
2022/03/05 02:13:55;;;;;;;18.83;10.65;;;;;;;1.45;68.57;62146.63;5046544;28;20519;-75
2022/03/05 02:16:23;;;;;;;16.02;10.18;;;;;;;1.46;68.56;62150.16;5038943;28;20217;-75
2022/03/05 02:18:51;;;;;;;16.98;10.98;;;;;;;1.49;68.75;62148.22;5045422;28;20256;-75
2022/03/05 02:21:23;;;;;;;16.02;10.80;;;;;;;1.51;68.39;62153.31;5045753;28;20213;-74
2022/03/05 02:23:50;;;;;;;20.42;11.93;;;;;;;1.52;68.39;62156.34;5045243;28;20206;-73
2022/03/05 02:26:17;;;;;;;17.48;11.55;;;;;;;1.55;68.15;62156.91;5044239;28;20202;-74
2022/03/05 02:28:44;;;;;;;15.15;11.13;;;;;;;1.59;66.58;62163.53;5046212;28;20194;-76
2022/03/05 02:31:11;;;;;;;17.75;11.60;;;;;;;1.61;66.71;62163.03;5045992;28;20491;-75
2022/03/05 02:33:38;;;;;;;22.05;11.40;;;;;;;1.62;67.16;62159.59;5040823;28;20239;-75
2022/03/05 02:36:06;;;;;;;19.17;12.50;;;;;;;1.69;67.75;62176.28;5043410;28;20269;-74
2022/03/05 02:38:34;;;;;;;21.90;12.23;;;;;;;1.71;68.53;62175.84;5045399;28;20593;-74
2022/03/05 02:41:00;;;;;;;22.23;11.48;;;;;;;1.72;68.51;62174.34;5045667;28;20198;-74
2022/03/05 02:43:27;;;;;;;20.23;11.05;;;;;;;1.76;68.76;62181.47;5040225;28;20643;-75
2022/03/05 02:45:55;;;;;;;18.58;11.10;;;;;;;1.73;68.76;62175.88;5025974;28;20198;-74
2022/03/05 02:48:22;;;;;;;21.02;12.02;;;;;;;1.81;68.49;62184.09;5028502;28;20245;-74
2022/03/05 02:50:51;;;;;;;18.58;11.52;;;;;;;1.81;68.81;62183.59;5044776;28;20201;-74
2022/03/05 02:53:18;;;;;;;15.35;10.30;;;;;;;1.78;69.14;62181.00;5040191;28;20301;-74
2022/03/05 02:55:47;;;;;;;16.00;11.77;;;;;;;1.77;67.92;62182.00;5045417;28;20210;-75
2022/03/05 02:58:14;;;;;;;19.13;11.25;;;;;;;1.74;67.05;62178.91;5045249;28;20263;-74
2022/03/05 03:00:41;;;;;;;21.58;11.93;;;;;;;1.77;66.54;62179.47;5039379;28;20437;-75
2022/03/05 03:03:08;;;;;;;19.98;11.38;;;;;;;1.72;66.65;62174.88;5044586;28;20229;-75
2022/03/05 03:05:35;;;;;;;23.95;12.30;;;;;;;1.76;66.00;62181.47;5044840;28;20202;-74
2022/03/05 03:08:01;;;;;;;23.52;12.20;;;;;;;1.78;66.04;62188.03;5045198;28;20498;-74
2022/03/05 03:10:29;;;;;;;20.23;12.27;;;;;;;1.83;66.33;62186.16;5038192;28;20499;-74
2022/03/05 03:12:58;;;;;;;22.33;12.55;;;;;;;1.85;66.56;62187.69;5045200;28;20271;-74
2022/03/05 03:15:26;;;;;;;19.70;11.32;;;;;;;1.82;66.62;62187.63;5045514;28;20400;-75
2022/03/05 03:17:53;;;;;;;17.42;11.32;;;;;;;1.72;67.58;62174.88;5042817;28;20268;-75
2022/03/05 03:20:23;;;;;;;17.83;11.45;;;;;;;1.68;69.63;62173.25;5044153;28;20240;-74
2022/03/05 03:22:49;;;;;;;15.35;10.82;;;;;;;1.65;70.81;62169.66;5044558;28;20218;-74
2022/03/05 03:25:17;;;;;;;21.25;11.13;;;;;;;1.57;72.35;62158.97;5044823;28;20206;-73
2022/03/05 03:27:44;;;;;;;15.23;10.20;;;;;;;1.53;73.39;62154.84;5042431;28;20232;-74
2022/03/05 03:30:14;;;;;;;16.27;10.68;;;;;;;1.44;73.63;62148.13;5044839;28;20245;-74
2022/03/05 03:32:42;;;;;;;16.80;10.52;;;;;;;1.36;73.41;62139.91;5044291;28;20594;-75
2022/03/05 03:35:10;;;;;;;17.30;11.05;;;;;;;1.39;72.18;62140.47;5042860;28;20529;-74
2022/03/05 03:37:37;;;;;;;16.00;10.18;;;;;;;1.33;72.32;62137.34;5030971;28;20230;-74
2022/03/05 03:40:07;;;;;;;21.67;12.02;;;;;;;1.36;73.22;62142.41;5024295;28;20198;-74
2022/03/05 03:42:34;;;;;;;19.60;12.18;;;;;;;1.34;71.41;62143.38;5024381;28;20285;-75
2022/03/05 03:45:02;;;;;;;18.58;11.32;;;;;;;1.23;71.23;62122.06;5032862;28;20210;-75
2022/03/05 03:47:30;;;;;;;17.50;11.07;;;;;;;1.22;72.09;62126.06;5025261;28;20227;-74
2022/03/05 03:49:57;;;;;;;18.63;12.13;;;;;;;1.24;71.63;62132.63;5024101;28;20194;-74
2022/03/05 03:52:24;;;;;;;16.75;10.85;;;;;;;1.28;71.12;62134.72;5024442;28;20431;-74
2022/03/05 03:54:51;;;;;;;18.75;12.15;;;;;;;1.30;70.92;62133.75;5035309;28;20226;-75
2022/03/05 03:57:18;;;;;;;18.40;12.20;;;;;;;1.32;71.01;62140.81;5035369;28;20266;-75
2022/03/05 03:59:47;;;;;;;18.48;11.60;;;;;;;1.29;71.90;62132.72;5044156;28;20205;-74
2022/03/05 04:02:14;;;;;;;24.75;12.60;;;;;;;1.19;73.01;62123.50;5042265;28;20230;-76
2022/03/05 04:04:42;;;;;;;18.30;12.05;;;;;;;1.21;73.83;62122.53;5034405;28;20261;-74
2022/03/05 04:09:55;;;;;;;20.25;12.32;;;;;;;1.08;75.86;62109.19;5043612;28;20280;-75
2022/03/05 04:12:22;;;;;;;22.90;12.85;;;;;;;1.03;75.68;62107.09;5041268;28;20238;-74
2022/03/05 04:14:49;;;;;;;22.92;14.23;;;;;;;1.01;74.83;62102.00;5038636;28;20206;-75
2022/03/05 04:17:16;;;;;;;22.58;13.15;;;;;;;0.97;74.28;62095.91;5043293;28;20555;-75
2022/03/05 04:19:45;;;;;;;24.40;13.60;;;;;;;0.92;74.74;62092.78;5043480;28;20232;-74
2022/03/05 04:22:12;;;;;;;19.60;12.05;;;;;;;0.83;75.27;62084.06;5036171;28;20269;-75
2022/03/05 04:24:39;;;;;;;22.15;12.55;;;;;;;0.71;77.35;62071.75;5027512;28;20498;-76
2022/03/05 04:27:06;;;;;;;17.27;11.88;;;;;;;0.67;78.57;62069.66;5043704;28;20246;-75
2022/03/05 04:29:33;;;;;;;18.33;11.77;;;;;;;0.58;79.15;62058.44;5042714;28;20245;-75
2022/03/05 04:31:59;;;;;;;22.73;12.43;;;;;;;0.50;79.64;62052.22;5031178;28;20396;-75
2022/03/05 04:34:27;;;;;;;22.60;12.82;;;;;;;0.43;79.88;62043.03;5023779;28;20257;-76
2022/03/05 04:36:55;;;;;;;26.88;14.10;;;;;;;0.38;80.16;62040.41;5038128;28;20226;-75
2022/03/05 04:39:22;;;;;;;25.30;14.13;;;;;;;0.41;80.40;62046.00;5042859;28;20201;-76
2022/03/05 04:41:49;;;;;;;21.65;12.68;;;;;;;0.33;80.79;62037.78;5025754;28;20542;-75
2022/03/05 04:44:16;;;;;;;25.30;13.18;;;;;;;0.25;81.45;62026.56;5028363;28;20240;-75
2022/03/05 04:46:43;;;;;;;23.80;13.57;;;;;;;0.23;81.98;62027.53;5045058;28;20293;-75
2022/03/05 04:49:10;;;;;;;27.20;14.80;;;;;;;0.16;81.91;62017.88;5038469;28;20268;-75
2022/03/05 04:51:37;;;;;;;26.60;15.10;;;;;;;0.15;82.01;62016.84;5023777;28;20471;-76
2022/03/05 04:54:05;;;;;;;24.40;13.55;;;;;;;0.15;81.62;62013.84;5023755;28;20249;-75
2022/03/05 04:56:32;;;;;;;24.35;14.05;;;;;;;0.18;81.31;62016.91;5036915;28;20214;-75
2022/03/05 04:58:59;;;;;;;25.23;14.95;;;;;;;0.18;81.58;62016.91;5041849;28;20391;-75
2022/03/05 05:01:26;;;;;;;21.98;13.25;;;;;;;0.27;82.05;62028.63;5043365;28;20198;-75
2022/03/05 05:03:53;;;;;;;24.80;12.82;;;;;;;0.25;81.85;62024.59;5043357;28;20209;-75
2022/03/05 05:06:19;;;;;;;19.27;11.20;;;;;;;0.28;81.88;62030.16;5041223;28;20198;-75
2022/03/05 05:08:46;;;;;;;17.70;10.82;;;;;;;0.37;80.65;62039.41;5042145;28;20202;-75
2022/03/05 05:11:15;;;;;;;18.35;11.70;;;;;;;0.40;80.93;62039.47;5044964;28;20217;-76
2022/03/05 05:13:41;;;;;;;16.90;10.90;;;;;;;0.38;81.05;62037.91;5043157;28;20240;-74
2022/03/05 05:16:09;;;;;;;16.35;10.15;;;;;;;0.48;81.53;62048.19;5039021;28;20198;-73
2022/03/05 05:18:36;;;;;;;15.38;10.13;;;;;;;0.54;81.99;62049.31;5034856;28;20229;-74
2022/03/05 05:21:03;;;;;;;15.57;10.38;;;;;;;0.67;81.69;62075.19;5035491;28;20198;-73
2022/03/05 05:23:30;;;;;;;16.95;10.00;;;;;;;0.68;81.79;62068.69;5041790;28;20226;-74
2022/03/05 05:25:57;;;;;;;16.73;10.50;;;;;;;0.76;81.73;62076.38;5041314;28;20201;-74
2022/03/05 05:28:25;;;;;;;17.08;10.23;;;;;;;0.90;81.09;62093.22;5042995;28;20230;-74
2022/03/05 05:30:52;;;;;;;18.15;11.32;;;;;;;0.94;80.84;62097.34;5039821;28;20214;-73
2022/03/05 05:33:20;;;;;;;20.13;12.10;;;;;;;1.03;79.82;62107.09;5046327;28;20238;-73
2022/03/05 05:35:47;;;;;;;18.58;11.77;;;;;;;1.11;79.08;62115.28;5044913;28;20401;-73
2022/03/05 05:38:14;;;;;;;23.25;12.30;;;;;;;1.24;78.34;62132.63;5045000;28;20213;-74
2022/03/05 05:40:41;;;;;;;20.95;11.57;;;;;;;1.31;78.11;62132.28;5045008;28;20209;-74
2022/03/05 05:43:08;;;;;;;21.38;13.00;;;;;;;1.38;78.07;62139.97;5043320;28;20217;-73
2022/03/05 05:45:37;;;;;;;27.15;14.80;;;;;;;1.26;77.83;62127.66;5028227;28;20254;-73
2022/03/05 05:48:04;;;;;;;33.35;15.40;;;;;;;1.12;78.22;62115.81;5045571;28;20234;-73
2022/03/05 05:50:31;;;;;;;30.25;17.05;;;;;;;1.13;78.16;62116.81;5046550;28;20237;-74
2022/03/05 05:52:58;;;;;;;28.48;17.50;;;;;;;0.99;78.52;62102.47;5040031;28;20234;-75
2022/03/05 05:55:25;;;;;;;33.83;17.15;;;;;;;1.08;79.24;62109.19;5033755;28;20208;-74
2022/03/05 05:57:53;;;;;;;29.42;17.05;;;;;;;1.24;78.03;62130.63;5046604;28;20218;-74
2022/03/05 06:00:20;;;;;;;24.88;14.55;;;;;;;1.21;80.31;62124.53;5046811;28;20257;-74
2022/03/05 06:02:48;;;;;;;32.08;16.00;;;;;;;1.45;80.48;62147.13;5045321;28;20229;-74
2022/03/05 06:05:15;;;;;;;29.52;16.48;;;;;;;1.64;76.89;62169.16;5047022;28;20228;-75
2022/03/05 06:07:42;;;;;;;33.15;17.08;;;;;;;1.67;74.51;62166.72;5051065;28;20248;-76
2022/03/05 06:10:10;;;;;;;32.72;16.02;;;;;;;1.66;74.83;62163.69;5048508;28;20210;-74
2022/03/05 06:12:37;;;;;;;32.13;18.58;;;;;;;1.64;74.45;62173.66;5048242;28;20226;-74
2022/03/05 06:15:05;;;;;;;32.42;17.85;;;;;;;1.73;74.58;62177.88;5048628;28;20245;-76
2022/03/05 06:17:32;;;;;;;34.20;17.80;;;;;;;1.77;73.73;62180.00;5046063;28;20417;-75
2022/03/05 06:20:00;;;;;;;26.48;17.95;;;;;;;1.76;72.45;62181.47;5044060;28;20249;-75
2022/03/05 06:22:27;;;;;;;35.15;18.45;;;;;;;1.61;72.84;62166.06;5044192;28;20364;-74
2022/03/05 06:24:54;;;;;;;35.45;17.42;;;;;;;1.58;73.83;62157.47;5046348;28;20206;-75
2022/03/05 06:27:20;;;;;;;28.25;18.58;;;;;;;1.85;72.60;62188.19;5045845;28;20230;-74
2022/03/05 06:29:47;;;;;;;31.50;18.52;;;;;;;1.73;71.37;62178.41;5042849;28;20202;-74
2022/03/05 06:32:14;;;;;;;39.70;19.77;;;;;;;1.85;71.60;62193.22;5045692;28;20284;-75
2022/03/05 06:34:41;;;;;;;31.77;18.88;;;;;;;2.08;71.92;62211.81;5044756;28;20228;-74
2022/03/05 06:37:09;;;;;;;33.97;19.05;;;;;;;2.13;72.29;62221.47;5044053;28;20267;-75
2022/03/05 06:39:36;;;;;;;36.35;19.70;;;;;;;2.13;72.26;62216.97;5045032;28;20281;-75
2022/03/05 06:42:04;;;;;;;38.70;20.42;;;;;;;2.23;72.30;62224.72;5045199;28;20214;-76
2022/03/05 06:44:31;;;;;;;35.30;17.95;;;;;;;1.64;74.00;62169.16;5046212;28;20194;-74
2022/03/05 06:46:59;;;;;;;35.63;18.60;;;;;;;1.71;74.17;62176.34;5038160;28;20230;-75
2022/03/05 06:49:26;;;;;;;37.40;18.33;;;;;;;1.98;72.46;62201.56;5028141;28;20203;-74
2022/03/05 06:51:52;;;;;;;33.17;18.77;;;;;;;1.83;72.33;62193.19;5025895;28;20562;-73
2022/03/05 06:54:21;;;;;;;35.08;18.70;;;;;;;1.88;72.84;62193.28;5044317;28;20232;-74
2022/03/05 06:56:48;;;;;;;40.53;19.63;;;;;;;2.02;73.60;62205.66;5044026;28;20221;-74
2022/03/05 06:59:15;;;;;;;39.40;18.52;;;;;;;2.36;71.13;62243.06;5045684;28;20265;-73
2022/03/05 07:01:42;;;;;;;37.22;19.27;;;;;;;2.44;69.67;62250.25;5045276;28;20224;-75
2022/03/05 07:04:09;;;;;;;30.42;18.10;;;;;;;2.06;68.17;62212.28;5042595;28;20248;-74
2022/03/05 07:06:37;;;;;;;47.63;19.35;;;;;;;2.29;68.13;62233.41;5026891;28;20226;-73
2022/03/05 07:09:05;;;;;;;34.90;19.90;;;;;;;2.19;67.73;62225.13;5045245;28;20198;-74
2022/03/05 07:11:33;;;;;;;38.92;19.35;;;;;;;2.05;69.59;62208.72;5044617;28;20217;-74
2022/03/05 07:14:00;;;;;;;39.38;18.98;;;;;;;2.11;68.28;62216.88;5044715;28;20230;-73
2022/03/05 07:16:27;;;;;;;40.75;20.00;;;;;;;2.18;68.11;62224.59;5046392;28;20197;-72
2022/03/05 07:18:54;;;;;;;30.67;17.73;;;;;;;2.22;67.08;62228.72;5045486;28;20272;-72
2022/03/05 07:21:21;;;;;;;26.88;17.92;;;;;;;2.22;64.55;62223.69;5043801;28;20206;-73
2022/03/05 07:23:48;;;;;;;29.98;17.10;;;;;;;2.22;63.79;62223.69;5044959;28;20198;-73
2022/03/05 07:26:16;;;;;;;27.05;16.98;;;;;;;2.55;63.42;62262.09;5046170;28;20221;-72
2022/03/05 07:28:45;;;;;;;27.77;17.63;;;;;;;2.76;62.94;62283.66;5044873;28;20201;-73
2022/03/05 07:31:12;;;;;;;43.88;18.63;;;;;;;2.83;61.86;62293.38;5043212;28;20545;-71
2022/03/05 07:33:39;;;;;;;28.55;15.65;;;;;;;3.16;59.14;62324.25;5035443;28;20292;-72
2022/03/05 07:36:06;;;;;;;27.40;15.35;;;;;;;3.33;58.38;62339.72;5038397;28;20198;-73
2022/03/05 07:38:33;;;;;;;29.65;17.83;;;;;;;3.08;57.53;62316.56;5039131;28;20222;-72
2022/03/05 07:41:00;;;;;;;23.08;16.33;;;;;;;2.84;58.91;62293.88;5033274;28;20210;-73
2022/03/05 07:43:27;;;;;;;35.33;18.23;;;;;;;2.88;59.68;62293.47;5038384;28;20245;-72
2022/03/05 07:45:55;;;;;;;33.17;17.17;;;;;;;3.24;59.14;62333.00;5036893;28;20329;-72
2022/03/05 07:48:22;;;;;;;35.35;17.60;;;;;;;3.54;58.30;62363.84;5040142;28;20294;-73
2022/03/05 07:50:51;;;;;;;33.30;18.38;;;;;;;3.86;59.10;62395.72;5039469;28;20195;-72
2022/03/05 07:53:18;;;;;;;32.33;18.75;;;;;;;4.08;57.97;62421.38;5037646;28;20227;-73
2022/03/05 07:55:45;;;;;;;34.75;19.27;;;;;;;4.43;57.15;62454.38;5038102;28;20377;-72
2022/03/05 07:58:12;;;;;;;33.95;18.13;;;;;;;4.63;55.01;62472.44;5038110;28;20210;-72
2022/03/05 08:00:39;;;;;;;31.67;17.77;;;;;;;3.99;54.85;62406.56;5039359;28;20280;-72
2022/03/05 08:03:07;;;;;;;32.13;17.83;;;;;;;4.11;54.83;62423.94;5035019;28;20380;-74
2022/03/05 08:05:34;;;;;;;28.02;16.40;;;;;;;4.15;55.41;62428.59;5036226;28;20261;-73
2022/03/05 08:08:01;;;;;;;30.88;18.50;;;;;;;3.81;56.32;62388.06;5036207;28;20399;-73
2022/03/05 08:10:28;;;;;;;34.45;18.85;;;;;;;3.77;57.53;62388.97;5034999;28;20194;-74
2022/03/05 08:12:55;;;;;;;27.60;19.20;;;;;;;4.12;56.45;62420.47;5031963;28;20522;-74
2022/03/05 08:15:22;;;;;;;28.90;17.70;;;;;;;4.39;56.23;62452.75;5034907;28;20248;-75
2022/03/05 08:17:50;;;;;;;42.45;19.55;;;;;;;4.63;55.29;62474.94;5031507;28;20225;-75
2022/03/05 08:20:19;;;;;;;33.13;18.83;;;;;;;4.82;56.48;62493.97;5033485;28;20195;-75
2022/03/05 08:22:46;;;;;;;28.90;18.38;;;;;;;4.80;55.28;62492.44;5035037;28;20225;-74
2022/03/05 08:25:13;;;;;;;36.30;20.45;;;;;;;4.94;55.92;62504.34;5034838;28;20202;-75
2022/03/05 08:27:40;;;;;;;32.53;21.30;;;;;;;4.83;56.35;62490.50;5039099;28;20446;-75
2022/03/05 08:30:08;;;;;;;32.83;19.75;;;;;;;5.25;57.75;62540.78;5034158;28;20500;-74
2022/03/05 08:32:35;;;;;;;33.90;21.10;;;;;;;5.35;56.37;62546.56;5039890;28;20257;-75
2022/03/05 08:35:02;;;;;;;36.13;21.95;;;;;;;5.61;57.25;62583.44;5033834;28;20584;-75
2022/03/05 08:37:30;;;;;;;34.83;20.98;;;;;;;6.01;55.80;62616.06;5036658;28;20289;-74
2022/03/05 08:39:57;;;;;;;34.05;20.70;;;;;;;6.45;55.36;62661.44;5038023;28;20236;-74
2022/03/05 08:42:25;;;;;;;38.88;20.33;;;;;;;6.81;53.12;62699.09;5037084;28;20994;-75
2022/03/05 08:44:52;;;;;;;34.25;19.23;;;;;;;7.06;52.36;62724.34;5036880;28;20468;-75
2022/03/05 08:47:19;;;;;;;33.40;19.25;;;;;;;7.33;51.33;62754.75;5039420;28;20274;-74
2022/03/05 08:49:45;;;;;;;29.65;19.48;;;;;;;7.45;50.20;62761.56;5036177;28;20248;-77
2022/03/05 08:52:12;;;;;;;29.70;19.23;;;;;;;7.59;51.24;62778.53;5029955;28;20214;-75
2022/03/05 08:54:41;;;;;;;33.13;19.95;;;;;;;7.74;50.22;62794.00;5035779;28;20234;-75
2022/03/05 08:57:09;;;;;;;34.80;20.40;;;;;;;7.54;50.27;62776.41;5033534;28;20238;-76
2022/03/05 08:59:35;;;;;;;28.65;18.48;;;;;;;7.53;51.37;62769.81;5034010;28;20265;-74
2022/03/05 09:02:03;;;;;;;34.63;20.20;;;;;;;7.70;51.22;62792.94;5042362;28;20226;-74
2022/03/05 09:04:29;;;;;;;31.77;18.63;;;;;;;7.65;51.92;62785.25;5044935;28;20208;-75
2022/03/05 09:06:56;;;;;;;31.40;18.40;;;;;;;7.72;51.69;62791.94;5046219;28;20228;-75
2022/03/05 09:09:23;;;;;;;33.22;18.67;;;;;;;7.52;52.30;62771.31;5048219;28;20221;-76
2022/03/05 09:11:52;;;;;;;32.92;18.42;;;;;;;7.74;52.68;62792.00;5047140;28;20556;-77
2022/03/05 09:14:18;;;;;;;25.05;15.63;;;;;;;7.88;52.33;62809.00;5046031;28;20450;-74
2022/03/05 09:16:45;;;;;;;25.17;15.20;;;;;;;7.93;52.35;62814.16;5046822;28;20226;-74
2022/03/05 09:19:12;;;;;;;26.08;15.82;;;;;;;8.10;52.60;62833.72;5046427;28;20557;-75
2022/03/05 09:21:39;;;;;;;22.58;14.80;;;;;;;8.10;53.17;62833.72;5044351;28;20412;-74
2022/03/05 09:24:07;;;;;;;26.33;14.90;;;;;;;8.39;52.79;62860.66;5044001;28;20297;-75
2022/03/05 09:26:34;;;;;;;27.10;16.13;;;;;;;8.60;52.77;62882.84;5046178;28;20218;-74
2022/03/05 09:29:02;;;;;;;24.80;14.93;;;;;;;8.73;52.24;62898.31;5040284;28;20214;-75
2022/03/05 09:31:29;;;;;;;22.02;14.07;;;;;;;7.83;53.82;62803.84;5043401;28;20217;-75
2022/03/05 09:33:56;;;;;;;23.48;14.32;;;;;;;7.69;55.11;62791.38;5043700;28;20272;-74
2022/03/05 09:36:23;;;;;;;24.90;15.48;;;;;;;8.03;55.32;62827.00;5045423;28;20202;-74
2022/03/05 09:38:50;;;;;;;24.40;14.10;;;;;;;8.01;53.56;62819.88;5040180;28;20257;-75
2022/03/05 09:41:17;;;;;;;22.17;13.70;;;;;;;7.60;55.17;62784.63;5045057;28;20244;-74
2022/03/05 09:43:44;;;;;;;21.45;14.48;;;;;;;7.29;56.67;62747.56;5045430;28;20214;-75
2022/03/05 09:46:13;;;;;;;24.48;15.15;;;;;;;7.36;56.53;62752.25;5047291;28;20198;-74
2022/03/05 09:48:41;;;;;;;21.73;13.40;;;;;;;6.99;57.33;62717.13;5033293;28;20217;-74
2022/03/05 09:51:08;;;;;;;23.50;15.70;;;;;;;6.49;60.94;62668.09;5038694;28;20216;-73
2022/03/05 09:53:35;;;;;;;25.38;14.32;;;;;;;6.69;61.27;62683.66;5046264;28;20221;-76
2022/03/05 09:56:02;;;;;;;29.48;18.55;;;;;;;6.87;61.14;62700.22;5037614;28;20202;-74
2022/03/05 09:58:29;;;;;;;21.65;15.02;;;;;;;6.30;63.04;62646.47;5037978;28;20240;-75
2022/03/05 10:00:56;;;;;;;24.67;15.63;;;;;;;6.26;64.37;62639.84;5044439;28;20217;-75
2022/03/05 10:03:27;;;;;;;24.60;14.45;;;;;;;6.78;64.89;62693.44;5045508;28;20264;-74
2022/03/05 10:06:13;;;;;;;21.63;14.85;;;;;;;7.12;63.39;62730.03;5040208;28;20554;-74
2022/03/05 10:08:40;;;;;;;20.15;13.70;;;;;;;7.13;61.81;62729.03;5044986;28;20247;-75
2022/03/05 10:11:09;;;;;;;22.40;14.13;;;;;;;7.25;62.67;62741.41;5045743;28;20240;-75
2022/03/05 10:13:37;;;;;;;20.98;14.55;;;;;;;6.77;62.89;62694.44;5045590;28;20222;-75
2022/03/05 10:16:07;;;;;;;23.20;14.82;;;;;;;6.71;63.64;62691.28;5038936;28;20205;-75
2022/03/05 10:18:37;;;;;;;25.65;14.38;;;;;;;6.74;64.18;62689.34;5046151;28;20249;-75
2022/03/05 10:21:11;;;;;;;23.30;14.15;;;;;;;6.25;65.30;62638.28;5046300;28;20217;-75
2022/03/05 10:23:40;;;;;;;20.25;13.73;;;;;;;5.74;69.46;62589.28;5045766;28;20510;-74
2022/03/05 10:26:08;;;;;;;22.50;14.68;;;;;;;5.84;70.14;62601.59;5043848;28;20502;-75
2022/03/05 10:28:38;;;;;;;24.63;14.90;;;;;;;5.97;70.60;62612.47;5053190;28;20324;-75
2022/03/05 10:31:08;;;;;;;23.05;16.05;;;;;;;5.52;72.64;62568.63;5047351;28;20198;-75
2022/03/05 10:33:38;;;;;;;22.55;14.55;;;;;;;5.27;74.74;62540.31;5039816;28;20293;-78
2022/03/05 10:36:08;;;;;;;22.35;15.00;;;;;;;5.23;75.63;62536.72;5045312;28;20238;-75
2022/03/05 10:38:50;;;;;;;21.17;14.13;;;;;;;4.94;78.29;62509.38;5043333;28;20214;-75
2022/03/05 10:41:18;;;;;;;17.75;13.13;;;;;;;5.08;78.55;62525.81;5042205;28;20202;-75
2022/03/05 10:44:10;;;;;;;30.77;14.52;;;;;;;5.03;79.85;62516.13;5050302;28;20210;-75
2022/03/05 10:46:38;;;;;;;22.85;13.93;;;;;;;5.02;80.40;62512.06;5045805;28;20218;-76
2022/03/05 10:49:09;;;;;;;25.52;14.95;;;;;;;5.31;79.60;62544.47;5045379;28;20304;-75
2022/03/05 10:51:37;;;;;;;20.83;13.20;;;;;;;5.38;79.22;62552.19;5041523;28;20233;-76
2022/03/05 10:54:04;;;;;;;20.33;13.50;;;;;;;4.89;82.05;62501.72;5045044;28;20214;-75
2022/03/05 10:56:33;;;;;;;23.45;14.45;;;;;;;4.68;85.01;62478.09;5046002;28;20248;-74
2022/03/05 10:59:05;;;;;;;23.77;14.60;;;;;;;4.56;86.32;62470.25;5043999;28;20221;-75
2022/03/05 11:01:32;;;;;;;23.23;14.52;;;;;;;4.49;87.99;62463.56;5044080;28;20542;-75
2022/03/05 11:04:00;;;;;;;34.47;21.05;;;;;;;4.90;86.51;62502.75;5044855;28;20193;-76
2022/03/05 11:06:28;;;;;;;30.45;18.85;;;;;;;4.96;86.07;62508.41;5043805;28;20206;-75
2022/03/05 11:08:55;;;;;;;21.88;15.02;;;;;;;4.84;87.39;62496.56;5042065;28;20474;-75
2022/03/05 11:11:23;;;;;;;26.48;15.13;;;;;;;4.65;89.38;62477.00;5026410;28;20205;-75
2022/03/05 11:13:50;;;;;;;22.33;15.15;;;;;;;4.84;88.89;62496.06;5031620;28;20212;-75
2022/03/05 11:16:17;;;;;;;21.50;14.13;;;;;;;4.77;89.76;62489.34;5044333;28;20588;-75
2022/03/05 11:18:44;;;;;;;21.73;13.85;;;;;;;5.02;88.25;62514.59;5044205;28;20200;-76
2022/03/05 11:21:11;;;;;;;20.95;14.65;;;;;;;5.19;86.52;62537.16;5044762;28;20210;-75
2022/03/05 11:23:42;;;;;;;27.38;16.08;;;;;;;5.35;84.56;62546.56;5043429;28;20530;-76
2022/03/05 11:26:11;;;;;;;37.05;21.95;;;;;;;5.57;83.90;62573.78;5044676;28;20198;-75
2022/03/05 11:28:41;;;;;;;71.03;47.10;;;;;;;5.68;82.21;62585.09;5043481;28;20269;-76